sensor_id;sensor_type;location;lat;lon;timestamp;pressure;altitude;pressure_sealevel;temperature;humidity
70544;BME280;58097;48.364;-1.224;2023-03-03T00:01:16;100340.59;;;3.58;70.54
70544;BME280;58097;48.364;-1.224;2023-03-03T00:03:42;100336.22;;;3.56;70.72
70544;BME280;58097;48.364;-1.224;2023-03-03T00:06:10;100340.16;;;3.52;70.71
70544;BME280;58097;48.364;-1.224;2023-03-03T00:08:37;100333.34;;;3.45;70.71
70544;BME280;58097;48.364;-1.224;2023-03-03T00:11:02;100340.88;;;3.41;70.89
70544;BME280;58097;48.364;-1.224;2023-03-03T00:13:31;100331.38;;;3.34;70.84
70544;BME280;58097;48.364;-1.224;2023-03-03T00:16:14;100334.41;;;3.29;70.83
70544;BME280;58097;48.364;-1.224;2023-03-03T00:18:46;100332.88;;;3.25;71.13
70544;BME280;58097;48.364;-1.224;2023-03-03T00:21:22;100335.72;;;3.24;71.73
70544;BME280;58097;48.364;-1.224;2023-03-03T00:23:50;100332.31;;;3.20;71.61
70544;BME280;58097;48.364;-1.224;2023-03-03T00:26:20;100333.31;;;3.19;71.83
70544;BME280;58097;48.364;-1.224;2023-03-03T00:28:51;100335.22;;;3.17;71.93
70544;BME280;58097;48.364;-1.224;2023-03-03T00:31:29;100338.06;;;3.16;71.85
70544;BME280;58097;48.364;-1.224;2023-03-03T00:34:20;100335.44;;;3.14;72.02
70544;BME280;58097;48.364;-1.224;2023-03-03T00:36:52;100341.22;;;3.09;71.74
70544;BME280;58097;48.364;-1.224;2023-03-03T00:41:44;100334.13;;;3.07;72.48
70544;BME280;58097;48.364;-1.224;2023-03-03T00:49:52;100345.00;;;2.94;72.13
70544;BME280;58097;48.364;-1.224;2023-03-03T00:52:18;100347.84;;;2.93;72.28
70544;BME280;58097;48.364;-1.224;2023-03-03T00:54:44;100341.50;;;2.92;72.27
70544;BME280;58097;48.364;-1.224;2023-03-03T00:57:10;100329.81;;;2.90;72.21
70544;BME280;58097;48.364;-1.224;2023-03-03T00:59:37;100337.28;;;2.87;71.97
70544;BME280;58097;48.364;-1.224;2023-03-03T01:02:02;100339.25;;;2.85;72.51
70544;BME280;58097;48.364;-1.224;2023-03-03T01:04:28;100339.34;;;2.83;72.94
70544;BME280;58097;48.364;-1.224;2023-03-03T01:06:53;100340.22;;;2.84;73.22
70544;BME280;58097;48.364;-1.224;2023-03-03T01:09:19;100335.84;;;2.81;72.70
70544;BME280;58097;48.364;-1.224;2023-03-03T01:11:44;100331.28;;;2.82;72.63
70544;BME280;58097;48.364;-1.224;2023-03-03T01:14:09;100338.69;;;2.79;72.36
70544;BME280;58097;48.364;-1.224;2023-03-03T01:16:35;100343.28;;;2.79;72.46
70544;BME280;58097;48.364;-1.224;2023-03-03T01:19:00;100338.03;;;2.76;72.91
70544;BME280;58097;48.364;-1.224;2023-03-03T01:21:25;100339.09;;;2.73;72.48
70544;BME280;58097;48.364;-1.224;2023-03-03T01:23:51;100336.38;;;2.73;72.45
70544;BME280;58097;48.364;-1.224;2023-03-03T01:26:16;100328.38;;;2.70;72.32
70544;BME280;58097;48.364;-1.224;2023-03-03T01:28:42;100331.22;;;2.69;72.21
70544;BME280;58097;48.364;-1.224;2023-03-03T01:31:07;100336.78;;;2.67;72.39
70544;BME280;58097;48.364;-1.224;2023-03-03T01:33:34;100330.56;;;2.65;72.72
70544;BME280;58097;48.364;-1.224;2023-03-03T01:36:00;100328.81;;;2.64;72.72
70544;BME280;58097;48.364;-1.224;2023-03-03T01:38:26;100324.53;;;2.60;72.42
70544;BME280;58097;48.364;-1.224;2023-03-03T01:40:56;100332.78;;;2.59;72.48
70544;BME280;58097;48.364;-1.224;2023-03-03T01:43:22;100329.28;;;2.57;72.39
70544;BME280;58097;48.364;-1.224;2023-03-03T01:48:17;100332.88;;;2.57;72.43
70544;BME280;58097;48.364;-1.224;2023-03-03T01:50:58;100321.00;;;2.58;73.01
70544;BME280;58097;48.364;-1.224;2023-03-03T01:53:36;100323.16;;;2.53;72.71
70544;BME280;58097;48.364;-1.224;2023-03-03T01:56:04;100325.09;;;2.51;72.43
70544;BME280;58097;48.364;-1.224;2023-03-03T01:58:37;100320.72;;;2.48;72.51
70544;BME280;58097;48.364;-1.224;2023-03-03T02:01:07;100329.00;;;2.47;72.58
70544;BME280;58097;48.364;-1.224;2023-03-03T02:03:34;100318.09;;;2.47;73.32
70544;BME280;58097;48.364;-1.224;2023-03-03T02:06:05;100322.78;;;2.45;73.49
70544;BME280;58097;48.364;-1.224;2023-03-03T02:11:17;100324.28;;;2.36;74.20
70544;BME280;58097;48.364;-1.224;2023-03-03T02:13:43;100325.44;;;2.32;74.22
70544;BME280;58097;48.364;-1.224;2023-03-03T02:16:08;100325.72;;;2.28;73.24
70544;BME280;58097;48.364;-1.224;2023-03-03T02:18:34;100325.81;;;2.26;73.12
70544;BME280;58097;48.364;-1.224;2023-03-03T02:21:04;100317.72;;;2.25;73.41
70544;BME280;58097;48.364;-1.224;2023-03-03T02:23:38;100330.41;;;2.26;73.68
70544;BME280;58097;48.364;-1.224;2023-03-03T02:26:11;100314.22;;;2.23;73.28
70544;BME280;58097;48.364;-1.224;2023-03-03T02:28:38;100317.94;;;2.22;73.77
70544;BME280;58097;48.364;-1.224;2023-03-03T02:31:07;100315.22;;;2.22;73.16
70544;BME280;58097;48.364;-1.224;2023-03-03T02:33:36;100311.59;;;2.21;73.24
70544;BME280;58097;48.364;-1.224;2023-03-03T02:36:01;100305.28;;;2.21;73.27
70544;BME280;58097;48.364;-1.224;2023-03-03T02:41:08;100299.94;;;2.19;73.09
70544;BME280;58097;48.364;-1.224;2023-03-03T02:43:55;100295.44;;;2.18;73.26
70544;BME280;58097;48.364;-1.224;2023-03-03T02:46:21;100292.91;;;2.15;73.39
70544;BME280;58097;48.364;-1.224;2023-03-03T02:48:47;100292.16;;;2.13;73.32
70544;BME280;58097;48.364;-1.224;2023-03-03T02:51:12;100286.91;;;2.10;73.45
70544;BME280;58097;48.364;-1.224;2023-03-03T02:53:37;100286.22;;;2.06;73.27
70544;BME280;58097;48.364;-1.224;2023-03-03T02:56:03;100290.91;;;2.04;73.04
70544;BME280;58097;48.364;-1.224;2023-03-03T02:58:29;100294.59;;;2.03;73.34
70544;BME280;58097;48.364;-1.224;2023-03-03T03:00:55;100293.00;;;1.99;73.25
70544;BME280;58097;48.364;-1.224;2023-03-03T03:03:20;100297.69;;;1.97;73.07
70544;BME280;58097;48.364;-1.224;2023-03-03T03:05:46;100295.16;;;1.94;72.91
70544;BME280;58097;48.364;-1.224;2023-03-03T03:08:11;100295.34;;;1.91;73.02
70544;BME280;58097;48.364;-1.224;2023-03-03T03:10:37;100291.84;;;1.89;73.13
70544;BME280;58097;48.364;-1.224;2023-03-03T03:13:03;100292.03;;;2.00;74.34
70544;BME280;58097;48.364;-1.224;2023-03-03T03:15:28;100295.53;;;2.02;73.85
70544;BME280;58097;48.364;-1.224;2023-03-03T03:17:53;100293.00;;;1.99;73.74
70544;BME280;58097;48.364;-1.224;2023-03-03T03:20:19;100303.91;;;1.99;73.92
70544;BME280;58097;48.364;-1.224;2023-03-03T03:22:44;100305.88;;;1.97;74.07
70544;BME280;58097;48.364;-1.224;2023-03-03T03:25:09;100302.38;;;1.95;73.93
70544;BME280;58097;48.364;-1.224;2023-03-03T03:27:35;100303.13;;;1.97;73.90
70544;BME280;58097;48.364;-1.224;2023-03-03T03:30:00;100300.31;;;1.99;74.12
70544;BME280;58097;48.364;-1.224;2023-03-03T03:32:25;100302.25;;;1.97;73.93
70544;BME280;58097;48.364;-1.224;2023-03-03T03:34:51;100298.75;;;1.95;73.53
70544;BME280;58097;48.364;-1.224;2023-03-03T03:37:16;100305.28;;;1.92;73.55
70544;BME280;58097;48.364;-1.224;2023-03-03T03:39:42;100306.25;;;1.91;73.51
70544;BME280;58097;48.364;-1.224;2023-03-03T03:42:07;100307.22;;;1.90;73.43
70544;BME280;58097;48.364;-1.224;2023-03-03T03:44:33;100304.72;;;1.87;73.23
70544;BME280;58097;48.364;-1.224;2023-03-03T03:46:59;100300.22;;;1.86;73.80
70544;BME280;58097;48.364;-1.224;2023-03-03T03:49:24;100303.63;;;1.90;74.41
70544;BME280;58097;48.364;-1.224;2023-03-03T03:51:49;100301.09;;;1.86;74.24
70544;BME280;58097;48.364;-1.224;2023-03-03T03:54:15;100304.50;;;1.90;74.27
70544;BME280;58097;48.364;-1.224;2023-03-03T03:56:40;100306.47;;;1.88;74.25
70544;BME280;58097;48.364;-1.224;2023-03-03T03:59:06;100315.59;;;1.87;74.98
70544;BME280;58097;48.364;-1.224;2023-03-03T04:01:32;100319.59;;;1.81;74.38
70544;BME280;58097;48.364;-1.224;2023-03-03T04:03:57;100318.72;;;1.81;74.58
70544;BME280;58097;48.364;-1.224;2023-03-03T04:06:23;100322.63;;;1.77;74.24
70544;BME280;58097;48.364;-1.224;2023-03-03T04:08:48;100327.19;;;1.76;74.15
70544;BME280;58097;48.364;-1.224;2023-03-03T04:11:14;100328.94;;;1.77;74.26
70544;BME280;58097;48.364;-1.224;2023-03-03T04:13:39;100320.97;;;1.74;74.11
70544;BME280;58097;48.364;-1.224;2023-03-03T04:16:05;100319.28;;;1.72;73.90
70544;BME280;58097;48.364;-1.224;2023-03-03T04:18:30;100321.91;;;1.73;74.56
70544;BME280;58097;48.364;-1.224;2023-03-03T04:20:56;100328.41;;;1.71;74.27
70544;BME280;58097;48.364;-1.224;2023-03-03T04:23:21;100327.34;;;1.73;74.63
70544;BME280;58097;48.364;-1.224;2023-03-03T04:25:47;100328.31;;;1.72;74.81
70544;BME280;58097;48.364;-1.224;2023-03-03T04:28:17;100335.47;;;1.75;75.12
70544;BME280;58097;48.364;-1.224;2023-03-03T04:30:42;100332.81;;;1.73;75.04
70544;BME280;58097;48.364;-1.224;2023-03-03T04:33:08;100329.19;;;1.73;74.91
70544;BME280;58097;48.364;-1.224;2023-03-03T04:35:33;100332.81;;;1.73;74.88
70544;BME280;58097;48.364;-1.224;2023-03-03T04:37:59;100321.91;;;1.73;74.96
70544;BME280;58097;48.364;-1.224;2023-03-03T04:40:25;100322.72;;;1.75;75.45
70544;BME280;58097;48.364;-1.224;2023-03-03T04:42:50;100320.88;;;1.76;75.33
70544;BME280;58097;48.364;-1.224;2023-03-03T04:45:16;100320.88;;;1.76;75.32
70544;BME280;58097;48.364;-1.224;2023-03-03T04:47:41;100320.97;;;1.74;75.16
70544;BME280;58097;48.364;-1.224;2023-03-03T04:50:08;100315.56;;;1.73;75.44
70544;BME280;58097;48.364;-1.224;2023-03-03T04:52:34;100312.78;;;1.74;75.47
70544;BME280;58097;48.364;-1.224;2023-03-03T04:54:59;100314.69;;;1.72;75.24
70544;BME280;58097;48.364;-1.224;2023-03-03T04:57:24;100312.06;;;1.71;75.18
70544;BME280;58097;48.364;-1.224;2023-03-03T04:59:50;100305.84;;;1.69;75.02
70544;BME280;58097;48.364;-1.224;2023-03-03T05:02:16;100308.75;;;1.66;74.94
70544;BME280;58097;48.364;-1.224;2023-03-03T05:04:41;100311.50;;;1.66;74.87
70544;BME280;58097;48.364;-1.224;2023-03-03T05:07:07;100314.22;;;1.66;75.48
70544;BME280;58097;48.364;-1.224;2023-03-03T05:09:32;100315.38;;;1.62;75.10
70544;BME280;58097;48.364;-1.224;2023-03-03T05:11:58;100319.84;;;1.63;75.45
70544;BME280;58097;48.364;-1.224;2023-03-03T05:14:23;100310.91;;;1.61;75.45
70544;BME280;58097;48.364;-1.224;2023-03-03T05:16:48;100318.00;;;1.63;76.48
70544;BME280;58097;48.364;-1.224;2023-03-03T05:19:14;100321.03;;;1.59;75.87
70544;BME280;58097;48.364;-1.224;2023-03-03T05:21:39;100317.41;;;1.58;76.01
70544;BME280;58097;48.364;-1.224;2023-03-03T05:24:08;100325.59;;;1.58;75.88
70544;BME280;58097;48.364;-1.224;2023-03-03T05:26:33;100333.75;;;1.58;75.95
70544;BME280;58097;48.364;-1.224;2023-03-03T05:28:59;100332.69;;;1.61;76.07
70544;BME280;58097;48.364;-1.224;2023-03-03T05:31:24;100329.59;;;1.67;76.59
70544;BME280;58097;48.364;-1.224;2023-03-03T05:33:51;100326.88;;;1.67;76.32
70544;BME280;58097;48.364;-1.224;2023-03-03T05:36:16;100333.72;;;1.74;78.70
70544;BME280;58097;48.364;-1.224;2023-03-03T05:38:42;100331.00;;;1.74;79.17
70544;BME280;58097;48.364;-1.224;2023-03-03T05:41:07;100325.16;;;1.80;78.28
70544;BME280;58097;48.364;-1.224;2023-03-03T05:43:33;100327.69;;;1.83;77.99
70544;BME280;58097;48.364;-1.224;2023-03-03T05:45:58;100328.47;;;1.85;77.66
70544;BME280;58097;48.364;-1.224;2023-03-03T05:48:24;100335.56;;;1.88;77.69
70544;BME280;58097;48.364;-1.224;2023-03-03T05:50:49;100329.13;;;1.89;77.34
70544;BME280;58097;48.364;-1.224;2023-03-03T05:53:14;100329.91;;;1.91;77.16
70544;BME280;58097;48.364;-1.224;2023-03-03T05:55:40;100329.03;;;1.90;76.79
70544;BME280;58097;48.364;-1.224;2023-03-03T05:58:05;100327.28;;;1.89;76.59
70544;BME280;58097;48.364;-1.224;2023-03-03T06:00:30;100332.34;;;1.95;77.76
70544;BME280;58097;48.364;-1.224;2023-03-03T06:02:56;100337.03;;;1.93;77.55
70544;BME280;58097;48.364;-1.224;2023-03-03T06:05:21;100326.91;;;1.95;77.52
70544;BME280;58097;48.364;-1.224;2023-03-03T06:07:47;100330.50;;;1.96;79.40
70544;BME280;58097;48.364;-1.224;2023-03-03T06:10:12;100330.41;;;1.97;80.79
70544;BME280;58097;48.364;-1.224;2023-03-03T06:12:38;100329.22;;;2.01;82.70
70544;BME280;58097;48.364;-1.224;2023-03-03T06:15:05;100334.63;;;2.03;83.50
70544;BME280;58097;48.364;-1.224;2023-03-03T06:17:30;100333.63;;;2.04;83.83
70544;BME280;58097;48.364;-1.224;2023-03-03T06:19:56;100333.34;;;2.08;84.07
70544;BME280;58097;48.364;-1.224;2023-03-03T06:22:21;100335.00;;;2.11;84.73
70544;BME280;58097;48.364;-1.224;2023-03-03T06:24:46;100339.19;;;2.16;84.16
70544;BME280;58097;48.364;-1.224;2023-03-03T06:27:12;100345.31;;;2.20;84.27
70544;BME280;58097;48.364;-1.224;2023-03-03T06:29:37;100339.75;;;2.22;85.03
70544;BME280;58097;48.364;-1.224;2023-03-03T06:32:02;100351.44;;;2.24;85.20
70544;BME280;58097;48.364;-1.224;2023-03-03T06:34:28;100343.84;;;2.29;85.29
70544;BME280;58097;48.364;-1.224;2023-03-03T06:36:54;100351.84;;;2.32;84.94
70544;BME280;58097;48.364;-1.224;2023-03-03T06:39:21;100347.94;;;2.36;85.22
70544;BME280;58097;48.364;-1.224;2023-03-03T06:41:46;100354.06;;;2.39;86.59
70544;BME280;58097;48.364;-1.224;2023-03-03T06:44:11;100360.19;;;2.43;87.40
70544;BME280;58097;48.364;-1.224;2023-03-03T06:46:37;100360.97;;;2.45;87.57
70544;BME280;58097;48.364;-1.224;2023-03-03T06:49:02;100356.28;;;2.47;87.81
70544;BME280;58097;48.364;-1.224;2023-03-03T06:51:33;100361.56;;;2.50;86.71
70544;BME280;58097;48.364;-1.224;2023-03-03T06:54:04;100365.06;;;2.52;86.86
70544;BME280;58097;48.364;-1.224;2023-03-03T06:56:33;100366.72;;;2.55;87.19
70544;BME280;58097;48.364;-1.224;2023-03-03T06:59:00;100373.72;;;2.59;86.48
70544;BME280;58097;48.364;-1.224;2023-03-03T07:01:30;100370.81;;;2.62;86.01
70544;BME280;58097;48.364;-1.224;2023-03-03T07:03:58;100366.91;;;2.66;85.13
70544;BME280;58097;48.364;-1.224;2023-03-03T07:06:25;100373.81;;;2.71;84.92
70544;BME280;58097;48.364;-1.224;2023-03-03T07:08:52;100382.78;;;2.73;85.52
70544;BME280;58097;48.364;-1.224;2023-03-03T07:11:21;100389.88;;;2.76;85.03
70544;BME280;58097;48.364;-1.224;2023-03-03T07:13:49;100386.75;;;2.82;84.89
70544;BME280;58097;48.364;-1.224;2023-03-03T07:16:16;100394.72;;;2.85;85.18
70544;BME280;58097;48.364;-1.224;2023-03-03T07:21:34;100398.94;;;2.91;85.43
70544;BME280;58097;48.364;-1.224;2023-03-03T07:24:17;100402.22;;;2.96;84.31
70544;BME280;58097;48.364;-1.224;2023-03-03T07:26:45;100404.84;;;2.97;85.63
70544;BME280;58097;48.364;-1.224;2023-03-03T07:29:26;100400.94;;;3.01;85.55
70544;BME280;58097;48.364;-1.224;2023-03-03T07:31:54;100406.28;;;3.03;86.23
70544;BME280;58097;48.364;-1.224;2023-03-03T07:34:29;100405.31;;;3.04;86.23
70544;BME280;58097;48.364;-1.224;2023-03-03T07:36:57;100409.81;;;3.05;86.00
70544;BME280;58097;48.364;-1.224;2023-03-03T07:39:37;100406.66;;;3.11;86.12
70544;BME280;58097;48.364;-1.224;2023-03-03T07:44:49;100414.94;;;3.24;86.02
70544;BME280;58097;48.364;-1.224;2023-03-03T07:47:19;100418.44;;;3.26;86.08
70544;BME280;58097;48.364;-1.224;2023-03-03T07:49:46;100414.50;;;3.30;86.11
70544;BME280;58097;48.364;-1.224;2023-03-03T07:55:29;100414.66;;;3.41;86.57
70544;BME280;58097;48.364;-1.224;2023-03-03T07:57:59;100417.00;;;3.47;85.73
70544;BME280;58097;48.364;-1.224;2023-03-03T08:03:27;100414.94;;;3.51;87.17
70544;BME280;58097;48.364;-1.224;2023-03-03T08:05:52;100419.09;;;3.56;86.47
70544;BME280;58097;48.364;-1.224;2023-03-03T08:10:51;100427.31;;;3.69;86.14
70544;BME280;58097;48.364;-1.224;2023-03-03T08:16:20;100436.44;;;3.82;85.98
70544;BME280;58097;48.364;-1.224;2023-03-03T08:18:50;100437.56;;;3.92;85.58
70544;BME280;58097;48.364;-1.224;2023-03-03T08:21:24;100439.97;;;3.97;85.71
70544;BME280;58097;48.364;-1.224;2023-03-03T08:23:50;100433.19;;;4.02;85.60
70544;BME280;58097;48.364;-1.224;2023-03-03T08:26:18;100434.31;;;4.13;85.39
70544;BME280;58097;48.364;-1.224;2023-03-03T08:28:44;100431.91;;;4.21;85.17
70544;BME280;58097;48.364;-1.224;2023-03-03T08:31:10;100436.72;;;4.30;85.03
70544;BME280;58097;48.364;-1.224;2023-03-03T08:33:36;100438.28;;;4.34;84.88
70544;BME280;58097;48.364;-1.224;2023-03-03T08:36:02;100439.47;;;4.43;84.66
70544;BME280;58097;48.364;-1.224;2023-03-03T08:38:27;100441.88;;;4.47;84.57
70544;BME280;58097;48.364;-1.224;2023-03-03T08:40:53;100445.03;;;4.54;84.48
70544;BME280;58097;48.364;-1.224;2023-03-03T08:43:18;100447.34;;;4.60;83.98
70544;BME280;58097;48.364;-1.224;2023-03-03T08:45:47;100448.03;;;4.63;83.88
70544;BME280;58097;48.364;-1.224;2023-03-03T08:48:13;100443.94;;;4.56;84.08
70544;BME280;58097;48.364;-1.224;2023-03-03T08:50:39;100456.22;;;4.63;84.03
70544;BME280;58097;48.364;-1.224;2023-03-03T08:53:04;100459.50;;;4.56;83.79
70544;BME280;58097;48.364;-1.224;2023-03-03T08:55:30;100457.41;;;4.59;83.35
70544;BME280;58097;48.364;-1.224;2023-03-03T08:57:56;100466.06;;;4.53;83.74
70544;BME280;58097;48.364;-1.224;2023-03-03T09:00:21;100468.16;;;4.50;83.92
70544;BME280;58097;48.364;-1.224;2023-03-03T09:02:48;100461.91;;;4.48;83.78
70544;BME280;58097;48.364;-1.224;2023-03-03T09:05:15;100466.50;;;4.47;84.34
70544;BME280;58097;48.364;-1.224;2023-03-03T09:07:42;100460.59;;;4.53;84.42
70544;BME280;58097;48.364;-1.224;2023-03-03T09:10:09;100466.72;;;4.57;83.83
70544;BME280;58097;48.364;-1.224;2023-03-03T09:12:39;100471.78;;;4.63;83.67
70544;BME280;58097;48.364;-1.224;2023-03-03T09:15:35;100464.22;;;4.66;83.11
70544;BME280;58097;48.364;-1.224;2023-03-03T09:20:41;100469.25;;;4.73;82.96
70544;BME280;58097;48.364;-1.224;2023-03-03T09:23:29;100472.22;;;4.70;82.77
70544;BME280;58097;48.364;-1.224;2023-03-03T09:25:56;100467.94;;;4.65;81.68
70544;BME280;58097;48.364;-1.224;2023-03-03T09:28:30;100479.19;;;4.61;81.63
70544;BME280;58097;48.364;-1.224;2023-03-03T09:30:58;100472.84;;;4.60;81.34
70544;BME280;58097;48.364;-1.224;2023-03-03T09:33:43;100481.81;;;4.62;81.52
70544;BME280;58097;48.364;-1.224;2023-03-03T09:36:18;100484.78;;;4.59;80.56
70544;BME280;58097;48.364;-1.224;2023-03-03T09:38:46;100478.53;;;4.57;80.32
70544;BME280;58097;48.364;-1.224;2023-03-03T09:44:53;100480.53;;;4.93;80.41
70544;BME280;58097;48.364;-1.224;2023-03-03T10:04:03;100490.88;;;6.11;74.21
70544;BME280;58097;48.364;-1.224;2023-03-03T10:17:50;100489.53;;;6.74;73.18
70544;BME280;58097;48.364;-1.224;2023-03-03T10:29:08;100491.59;;;7.71;71.40
70544;BME280;58097;48.364;-1.224;2023-03-03T10:32:03;100496.00;;;7.62;69.48
70544;BME280;58097;48.364;-1.224;2023-03-03T10:37:50;100501.13;;;8.10;71.15
70544;BME280;58097;48.364;-1.224;2023-03-03T10:56:48;100504.28;;;9.00;68.01
70544;BME280;58097;48.364;-1.224;2023-03-03T11:01:58;100499.72;;;9.20;67.05
70544;BME280;58097;48.364;-1.224;2023-03-03T11:12:47;100478.22;;;9.14;64.88
70544;BME280;58097;48.364;-1.224;2023-03-03T11:18:27;100502.13;;;9.04;64.18
70544;BME280;58097;48.364;-1.224;2023-03-03T11:21:00;100504.00;;;9.03;62.95
70544;BME280;58097;48.364;-1.224;2023-03-03T11:34:15;100511.44;;;9.52;63.56
70544;BME280;58097;48.364;-1.224;2023-03-03T11:36:49;100517.59;;;9.66;61.46
70544;BME280;58097;48.364;-1.224;2023-03-03T11:39:22;100520.09;;;9.78;61.88
70544;BME280;58097;48.364;-1.224;2023-03-03T11:45:22;100517.16;;;9.60;61.12
70544;BME280;58097;48.364;-1.224;2023-03-03T11:51:05;100514.69;;;9.57;60.98
70544;BME280;58097;48.364;-1.224;2023-03-03T11:53:39;100510.56;;;9.52;60.88
70544;BME280;58097;48.364;-1.224;2023-03-03T11:58:59;100506.28;;;9.78;61.21
70544;BME280;58097;48.364;-1.224;2023-03-03T12:01:35;100506.28;;;9.78;60.08
70544;BME280;58097;48.364;-1.224;2023-03-03T12:04:13;100503.00;;;9.84;61.00
70544;BME280;58097;48.364;-1.224;2023-03-03T12:06:53;100492.81;;;9.85;61.00
70544;BME280;58097;48.364;-1.224;2023-03-03T12:10:04;100502.94;;;9.75;58.82
70544;BME280;58097;48.364;-1.224;2023-03-03T12:12:37;100489.72;;;9.69;58.57
70544;BME280;58097;48.364;-1.224;2023-03-03T12:17:58;100488.91;;;9.97;58.64
70544;BME280;58097;48.364;-1.224;2023-03-03T12:23:52;100483.09;;;10.00;59.40
70544;BME280;58097;48.364;-1.224;2023-03-03T12:29:05;100475.00;;;10.28;57.65
70544;BME280;58097;48.364;-1.224;2023-03-03T12:31:50;100469.78;;;10.44;58.23
70544;BME280;58097;48.364;-1.224;2023-03-03T12:34:21;100467.41;;;10.59;59.43
70544;BME280;58097;48.364;-1.224;2023-03-03T12:36:58;100464.81;;;10.57;57.74
70544;BME280;58097;48.364;-1.224;2023-03-03T12:39:44;100463.28;;;10.82;57.90
70544;BME280;58097;48.364;-1.224;2023-03-03T12:42:40;100463.88;;;10.85;57.88
70544;BME280;58097;48.364;-1.224;2023-03-03T12:47:39;100456.94;;;10.62;57.21
70544;BME280;58097;48.364;-1.224;2023-03-03T12:55:28;100453.81;;;10.84;56.60
70544;BME280;58097;48.364;-1.224;2023-03-03T12:58:08;100454.09;;;11.01;56.74
70544;BME280;58097;48.364;-1.224;2023-03-03T13:06:29;100445.06;;;11.26;54.12
70544;BME280;58097;48.364;-1.224;2023-03-03T13:09:37;100443.31;;;11.35;54.90
70544;BME280;58097;48.364;-1.224;2023-03-03T13:17:36;100439.75;;;11.42;53.57
70544;BME280;58097;48.364;-1.224;2023-03-03T13:21:05;100426.47;;;11.18;51.56
70544;BME280;58097;48.364;-1.224;2023-03-03T13:26:28;100430.25;;;11.17;53.83
70544;BME280;58097;48.364;-1.224;2023-03-03T13:29:21;100421.72;;;11.38;52.87
70544;BME280;58097;48.364;-1.224;2023-03-03T13:31:49;100425.06;;;11.42;51.75
70544;BME280;58097;48.364;-1.224;2023-03-03T13:34:27;100430.19;;;11.37;52.50
70544;BME280;58097;48.364;-1.224;2023-03-03T13:37:02;100423.88;;;11.17;49.26
70544;BME280;58097;48.364;-1.224;2023-03-03T13:39:33;100424.78;;;11.08;49.47
70544;BME280;58097;48.364;-1.224;2023-03-03T13:42:07;100419.19;;;11.17;51.39
70544;BME280;58097;48.364;-1.224;2023-03-03T13:44:43;100422.84;;;11.18;50.11
70544;BME280;58097;48.364;-1.224;2023-03-03T13:47:29;100415.94;;;11.32;51.46
70544;BME280;58097;48.364;-1.224;2023-03-03T13:52:28;100404.88;;;11.32;50.05
70544;BME280;58097;48.364;-1.224;2023-03-03T14:05:44;100409.31;;;11.15;49.54
70544;BME280;58097;48.364;-1.224;2023-03-03T14:08:27;100406.94;;;11.30;48.84
70544;BME280;58097;48.364;-1.224;2023-03-03T14:16:31;100399.53;;;11.21;48.46
70544;BME280;58097;48.364;-1.224;2023-03-03T14:19:04;100407.66;;;10.95;47.95
70544;BME280;58097;48.364;-1.224;2023-03-03T14:21:39;100412.69;;;11.09;47.71
70544;BME280;58097;48.364;-1.224;2023-03-03T14:24:22;100402.66;;;11.08;47.29
70544;BME280;58097;48.364;-1.224;2023-03-03T14:26:55;100408.75;;;11.11;48.34
70544;BME280;58097;48.364;-1.224;2023-03-03T14:32:00;100402.19;;;11.40;49.16
70544;BME280;58097;48.364;-1.224;2023-03-03T14:34:33;100410.97;;;11.35;47.73
70544;BME280;58097;48.364;-1.224;2023-03-03T14:40:15;100390.81;;;11.43;46.88
70544;BME280;58097;48.364;-1.224;2023-03-03T14:42:57;100396.59;;;11.49;50.01
70544;BME280;58097;48.364;-1.224;2023-03-03T14:45:39;100388.09;;;11.61;49.50
70544;BME280;58097;48.364;-1.224;2023-03-03T14:48:17;100384.44;;;11.60;47.77
70544;BME280;58097;48.364;-1.224;2023-03-03T14:50:50;100384.59;;;11.59;48.89
70544;BME280;58097;48.364;-1.224;2023-03-03T14:53:20;100377.72;;;11.63;49.75
70544;BME280;58097;48.364;-1.224;2023-03-03T14:55:48;100376.09;;;11.42;49.58
70544;BME280;58097;48.364;-1.224;2023-03-03T14:58:31;100373.75;;;11.47;50.62
70544;BME280;58097;48.364;-1.224;2023-03-03T15:01:15;100376.69;;;11.64;51.05
70544;BME280;58097;48.364;-1.224;2023-03-03T15:04:00;100383.25;;;11.63;50.46
70544;BME280;58097;48.364;-1.224;2023-03-03T15:09:19;100377.03;;;11.78;51.47
70544;BME280;58097;48.364;-1.224;2023-03-03T15:11:50;100381.38;;;11.81;51.08
70544;BME280;58097;48.364;-1.224;2023-03-03T15:14:17;100375.13;;;11.79;50.85
70544;BME280;58097;48.364;-1.224;2023-03-03T15:16:43;100380.25;;;11.74;51.59
70544;BME280;58097;48.364;-1.224;2023-03-03T15:19:43;100375.16;;;11.52;49.81
70544;BME280;58097;48.364;-1.224;2023-03-03T15:27:24;100377.78;;;11.53;51.15
70544;BME280;58097;48.364;-1.224;2023-03-03T15:30:19;100378.34;;;11.57;51.82
70544;BME280;58097;48.364;-1.224;2023-03-03T15:32:53;100377.56;;;11.64;51.80
70544;BME280;58097;48.364;-1.224;2023-03-03T15:35:33;100375.81;;;11.63;51.76
70544;BME280;58097;48.364;-1.224;2023-03-03T15:38:21;100378.44;;;11.65;51.93
70544;BME280;58097;48.364;-1.224;2023-03-03T15:41:03;100387.88;;;11.44;51.69
70544;BME280;58097;48.364;-1.224;2023-03-03T15:43:36;100386.16;;;11.43;51.12
70544;BME280;58097;48.364;-1.224;2023-03-03T15:46:05;100383.22;;;11.45;51.93
70544;BME280;58097;48.364;-1.224;2023-03-03T15:48:45;100387.44;;;11.22;50.04
70544;BME280;58097;48.364;-1.224;2023-03-03T15:51:25;100393.50;;;10.98;51.06
70544;BME280;58097;48.364;-1.224;2023-03-03T15:56:52;100387.88;;;10.99;51.71
70544;BME280;58097;48.364;-1.224;2023-03-03T16:02:22;100383.44;;;11.06;52.14
70544;BME280;58097;48.364;-1.224;2023-03-03T16:05:19;100393.97;;;10.93;50.94
70544;BME280;58097;48.364;-1.224;2023-03-03T16:10:28;100391.09;;;10.85;53.14
70544;BME280;58097;48.364;-1.224;2023-03-03T16:13:16;100399.25;;;10.86;53.74
70544;BME280;58097;48.364;-1.224;2023-03-03T16:24:21;100413.03;;;10.40;54.08
70544;BME280;58097;48.364;-1.224;2023-03-03T16:27:33;100402.59;;;10.34;54.12
70544;BME280;58097;48.364;-1.224;2023-03-03T16:32:50;100416.09;;;10.17;54.44
70544;BME280;58097;48.364;-1.224;2023-03-03T16:35:24;100411.75;;;10.15;54.33
70544;BME280;58097;48.364;-1.224;2023-03-03T16:38:05;100419.44;;;10.11;55.51